Time;durP1;ratioP1;P1;durP2;ratioP2;P2;SDS_P1;SDS_P2;PMS_P1;PMS_P2;Temp;Humidity;BMP_temperature;BMP_pressure;BME280_temperature;BME280_humidity;BME280_pressure;Samples;Min_cycle;Max_cycle;Signal;HPM_P1;HPM_P2
2023/01/17 00:01:07;;;;;;;60.67;33.53;;;;;;;7.26;60.49;99857.91;5113349;28;20739;-76
2023/01/17 00:09:51;;;;;;;50.13;26.98;;;;;;;7.23;60.92;99855.63;5111831;28;20383;-76
2023/01/17 00:11:48;;;;;;;40.85;23.90;;;;;;;7.30;61.18;99856.56;5107507;28;20390;-76
2023/01/17 00:14:14;;;;;;;49.90;29.23;;;;;;;7.32;60.77;99854.59;5109947;28;20770;-76
2023/01/17 00:16:39;;;;;;;49.03;27.15;;;;;;;7.37;60.77;99859.38;5111144;28;20415;-75
2023/01/17 01:33:46;;;;;;;48.22;23.50;;;;;;;6.94;61.86;99806.13;5107469;28;20391;-76
2023/01/17 01:36:12;;;;;;;49.20;24.13;;;;;;;7.03;61.45;99813.81;5110167;28;20376;-76
2023/01/17 01:38:38;;;;;;;51.00;24.13;;;;;;;7.06;61.51;99810.84;5109936;28;20391;-76
2023/01/17 01:41:04;;;;;;;49.50;24.33;;;;;;;6.84;62.00;99808.94;5110118;28;20383;-76
2023/01/17 01:43:48;;;;;;;40.23;20.50;;;;;;;6.62;62.85;99816.53;5107239;28;20382;-76
2023/01/17 01:46:18;;;;;;;40.95;21.27;;;;;;;6.48;63.41;99817.19;5106818;28;20387;-76
2023/01/17 01:48:54;;;;;;;39.40;20.05;;;;;;;6.40;63.67;99804.88;5109347;28;20410;-76
2023/01/17 01:51:37;;;;;;;44.67;23.30;;;;;;;6.52;63.38;99810.63;5108323;28;20394;-76
2023/01/17 01:54:45;;;;;;;45.67;22.55;;;;;;;6.78;63.06;99813.06;5113232;28;20376;-77
2023/01/17 01:57:17;;;;;;;41.05;21.88;;;;;;;6.96;62.71;99804.94;5073348;28;20483;-77
2023/01/17 01:59:48;;;;;;;32.63;18.10;;;;;;;7.04;62.29;99804.09;5113398;28;20379;-76
2023/01/17 02:02:14;;;;;;;41.03;21.58;;;;;;;7.11;62.09;99789.25;5111780;28;20379;-77
2023/01/17 02:04:40;;;;;;;40.22;21.55;;;;;;;7.07;61.70;99787.97;5114036;28;20427;-77
2023/01/17 02:07:30;;;;;;;39.30;21.93;;;;;;;7.01;62.08;99786.00;5113796;28;20498;-76
2023/01/17 02:09:57;;;;;;;36.75;20.58;;;;;;;7.11;62.05;99791.88;5111573;28;20394;-76
2023/01/17 02:12:24;;;;;;;36.20;21.35;;;;;;;7.07;61.71;99783.50;5113882;28;20923;-76
2023/01/17 02:14:49;;;;;;;33.75;19.70;;;;;;;7.01;62.18;99772.84;5114081;28;20387;-76
2023/01/17 02:17:22;;;;;;;32.20;18.77;;;;;;;6.90;62.46;99774.03;5113221;28;20605;-76
2023/01/17 02:20:29;;;;;;;36.85;20.42;;;;;;;6.96;62.53;99783.88;5113568;28;20870;-76
2023/01/17 02:23:18;;;;;;;32.22;19.13;;;;;;;6.78;62.57;99802.53;5113734;27;20472;-76
2023/01/17 02:26:21;;;;;;;37.38;21.75;;;;;;;6.62;63.65;99794.66;5112326;28;20903;-76
2023/01/17 02:29:05;;;;;;;39.13;23.43;;;;;;;6.62;63.27;99781.47;5113695;28;20411;-76
2023/01/17 02:32:03;;;;;;;42.17;23.98;;;;;;;6.65;63.40;99805.66;5113238;28;20478;-76
2023/01/17 02:34:54;;;;;;;30.67;18.37;;;;;;;6.56;63.53;99776.91;5105621;28;20395;-76
2023/01/17 02:37:53;;;;;;;40.15;24.13;;;;;;;6.49;63.92;99780.19;5112588;28;20739;-76
2023/01/17 02:40:25;;;;;;;46.63;26.25;;;;;;;6.57;63.83;99786.41;5105105;28;20448;-76
2023/01/17 02:42:56;;;;;;;35.75;20.58;;;;;;;6.62;63.70;99798.09;5113470;28;20403;-76
2023/01/17 02:45:22;;;;;;;37.05;21.27;;;;;;;6.56;64.21;99795.31;5111497;28;20408;-76
2023/01/17 02:47:47;;;;;;;38.10;20.58;;;;;;;6.54;64.00;99799.94;5113220;28;20384;-76
2023/01/17 02:50:18;;;;;;;41.43;24.10;;;;;;;6.50;64.14;99810.78;5113632;28;20387;-76
2023/01/17 02:53:03;;;;;;;38.95;21.27;;;;;;;6.58;64.20;99803.88;5112072;28;20379;-76
2023/01/17 02:55:38;;;;;;;38.65;21.80;;;;;;;6.74;64.05;99795.94;5106504;28;20417;-76
2023/01/17 02:58:40;;;;;;;36.63;21.63;;;;;;;6.73;63.53;99796.94;5104597;28;20396;-76
2023/01/17 03:01:06;;;;;;;37.03;20.40;;;;;;;6.85;63.46;99789.50;5111902;28;20383;-75
2023/01/17 03:03:31;;;;;;;36.73;20.97;;;;;;;6.87;63.27;99766.44;5112345;28;20728;-75
2023/01/17 03:06:01;;;;;;;38.23;20.93;;;;;;;6.89;63.14;99767.91;5112816;28;20386;-76
2023/01/17 03:08:27;;;;;;;34.33;20.95;;;;;;;6.73;63.76;99769.78;5109827;28;20375;-76
2023/01/17 03:10:53;;;;;;;35.97;21.50;;;;;;;6.63;64.19;99759.44;5102581;28;20833;-76
2023/01/17 03:13:19;;;;;;;33.67;20.13;;;;;;;6.53;64.38;99759.59;5112577;28;20387;-76
2023/01/17 03:15:44;;;;;;;37.37;20.63;;;;;;;6.53;64.91;99766.69;5112637;28;20375;-76
2023/01/17 03:18:13;;;;;;;36.63;21.33;;;;;;;6.56;64.60;99767.19;5112603;28;20755;-76
2023/01/17 03:20:39;;;;;;;33.75;20.25;;;;;;;6.45;65.14;99767.53;5112624;28;20383;-76
2023/01/17 03:23:04;;;;;;;31.70;18.58;;;;;;;6.38;65.12;99764.72;5112503;28;20387;-76
2023/01/17 03:25:30;;;;;;;33.80;20.73;;;;;;;6.33;65.91;99774.94;5111934;28;20580;-76
2023/01/17 03:27:55;;;;;;;32.63;19.33;;;;;;;6.51;65.06;99780.81;5112708;28;20395;-76
2023/01/17 03:30:21;;;;;;;31.23;19.80;;;;;;;6.53;65.24;99779.84;5111847;28;20422;-76
2023/01/17 03:32:48;;;;;;;34.50;20.60;;;;;;;6.50;65.11;99781.84;5111794;28;20391;-76
2023/01/17 03:35:13;;;;;;;29.23;18.60;;;;;;;6.45;65.24;99778.06;5112280;28;20415;-76
2023/01/17 03:37:39;;;;;;;31.98;18.60;;;;;;;6.38;65.57;99783.16;5111824;28;20431;-76
2023/01/17 03:40:05;;;;;;;30.50;18.77;;;;;;;6.43;65.24;99783.50;5111572;28;20797;-75
2023/01/17 03:42:30;;;;;;;31.67;19.20;;;;;;;6.41;65.51;99790.72;5111463;28;20386;-76
2023/01/17 03:44:56;;;;;;;31.80;20.10;;;;;;;6.38;65.84;99790.25;5111897;28;20411;-76
2023/01/17 03:47:21;;;;;;;35.13;20.33;;;;;;;6.44;65.45;99784.31;5112353;28;20790;-75
2023/01/17 03:49:47;;;;;;;31.57;19.53;;;;;;;6.50;65.06;99767.84;5111951;28;20429;-75
2023/01/17 03:52:12;;;;;;;31.85;20.13;;;;;;;6.41;65.27;99759.16;5111332;28;20386;-76
2023/01/17 03:54:38;;;;;;;34.37;20.80;;;;;;;6.57;65.58;99762.72;5111966;28;20836;-75
2023/01/17 03:57:03;;;;;;;33.77;19.70;;;;;;;6.44;65.18;99760.59;5111651;28;20383;-76
2023/01/17 03:59:28;;;;;;;33.67;20.98;;;;;;;6.44;65.45;99760.59;5111741;28;20752;-75
2023/01/17 04:01:54;;;;;;;37.67;20.67;;;;;;;6.38;65.35;99762.09;5111663;28;20383;-76
2023/01/17 04:04:20;;;;;;;37.83;20.77;;;;;;;6.50;65.40;99766.03;5111860;28;20443;-75
2023/01/17 04:06:46;;;;;;;34.90;20.67;;;;;;;6.57;65.08;99763.56;5111520;28;20479;-75
2023/01/17 04:09:12;;;;;;;36.00;21.67;;;;;;;6.58;65.17;99764.38;5111480;28;20423;-76
2023/01/17 04:11:37;;;;;;;34.25;21.40;;;;;;;6.67;64.68;99769.44;5111400;28;20890;-75
2023/01/17 04:14:03;;;;;;;34.77;20.80;;;;;;;6.85;64.30;99771.06;5111098;28;20394;-75
2023/01/17 04:16:30;;;;;;;48.53;41.83;;;;;;;7.03;63.91;99786.66;5111178;28;20386;-75
2023/01/17 04:18:56;;;;;;;35.03;21.20;;;;;;;7.14;63.67;99799.47;5111644;28;20455;-75
2023/01/17 04:21:22;;;;;;;34.37;21.67;;;;;;;7.18;63.32;99789.41;5111224;28;20874;-75
2023/01/17 04:23:48;;;;;;;36.65;21.35;;;;;;;7.16;63.58;99778.22;5110388;28;20723;-76
2023/01/17 04:26:13;;;;;;;37.65;22.48;;;;;;;7.25;63.35;99788.53;5111202;27;20470;-76
2023/01/17 04:28:39;;;;;;;37.55;23.27;;;;;;;7.36;62.62;99792.59;5110902;28;20435;-76
2023/01/17 04:31:05;;;;;;;39.85;22.63;;;;;;;7.43;62.68;99805.94;5111221;27;20380;-76
2023/01/17 04:33:30;;;;;;;38.33;22.90;;;;;;;7.32;62.41;99786.03;5110232;28;21068;-76
2023/01/17 04:35:56;;;;;;;39.87;23.90;;;;;;;7.28;62.52;99792.66;5111407;28;20784;-74
2023/01/17 04:38:22;;;;;;;38.97;23.60;;;;;;;7.29;62.55;99791.66;5110332;28;20412;-75
2023/01/17 04:40:48;;;;;;;39.95;23.55;;;;;;;7.31;62.74;99778.31;5111119;28;20399;-75
2023/01/17 04:43:14;;;;;;;36.83;23.07;;;;;;;7.34;62.60;99783.25;5111555;28;20387;-75
2023/01/17 04:45:40;;;;;;;45.53;26.27;;;;;;;7.37;62.67;99782.91;5111397;28;20954;-74
2023/01/17 04:48:06;;;;;;;42.47;24.60;;;;;;;7.44;62.22;99784.69;5110679;28;20475;-75
2023/01/17 04:50:32;;;;;;;42.78;25.85;;;;;;;7.57;62.30;99781.47;5110888;28;20423;-76
2023/01/17 04:52:58;;;;;;;44.15;27.30;;;;;;;7.55;61.79;99788.75;5111268;28;20394;-76
2023/01/17 04:55:24;;;;;;;57.47;44.22;;;;;;;7.59;61.75;99789.22;5110617;28;20863;-75
2023/01/17 04:57:50;;;;;;;41.03;25.05;;;;;;;7.62;61.63;99794.16;5110818;28;20390;-76
2023/01/17 05:00:16;;;;;;;45.88;29.92;;;;;;;7.70;61.83;99807.28;5111183;28;20740;-75
2023/01/17 05:02:41;;;;;;;40.10;25.00;;;;;;;7.83;61.38;99815.47;5111121;28;20414;-75
2023/01/17 05:05:08;;;;;;;39.20;24.60;;;;;;;7.81;61.09;99785.81;5110843;28;20872;-76
2023/01/17 05:07:33;;;;;;;43.47;27.17;;;;;;;7.83;61.46;99786.44;5110468;28;20474;-76
2023/01/17 05:09:59;;;;;;;44.22;30.90;;;;;;;7.90;60.96;99788.38;5110669;28;20486;-76
2023/01/17 05:12:26;;;;;;;43.33;26.58;;;;;;;7.79;61.21;99784.31;5109515;28;20432;-75
2023/01/17 05:14:51;;;;;;;39.80;25.25;;;;;;;7.75;61.23;99783.84;5108181;28;20376;-76
2023/01/17 05:17:17;;;;;;;38.03;23.57;;;;;;;7.70;61.57;99773.00;5108689;28;20443;-78
2023/01/17 05:19:42;;;;;;;41.70;26.23;;;;;;;7.74;61.71;99768.19;5110914;28;20387;-76
2023/01/17 05:22:14;;;;;;;41.73;25.47;;;;;;;7.80;61.29;99762.22;5110651;28;20410;-75
2023/01/17 05:24:46;;;;;;;42.72;24.83;;;;;;;7.80;61.72;99776.22;5110567;28;20420;-75
2023/01/17 05:27:13;;;;;;;42.53;25.10;;;;;;;7.90;61.05;99781.25;5115437;28;20827;-76
2023/01/17 05:29:39;;;;;;;43.75;29.23;;;;;;;7.87;61.25;99784.28;5117478;27;20418;-75
2023/01/17 05:32:05;;;;;;;60.58;48.13;;;;;;;7.83;61.29;99796.16;5117238;27;20387;-77
2023/01/17 05:34:31;;;;;;;42.58;24.40;;;;;;;7.74;61.57;99798.03;5116628;27;20398;-76
2023/01/17 05:36:56;;;;;;;43.42;26.05;;;;;;;7.70;61.56;99801.19;5117507;27;20480;-76
2023/01/17 05:39:22;;;;;;;43.23;26.33;;;;;;;7.70;61.74;99807.28;5116702;27;20414;-76
2023/01/17 05:41:47;;;;;;;42.33;24.63;;;;;;;7.69;61.47;99810.94;5116051;28;20390;-76
2023/01/17 05:44:14;;;;;;;40.47;25.35;;;;;;;7.76;61.72;99830.34;5116593;27;20403;-76
2023/01/17 05:46:40;;;;;;;41.90;26.33;;;;;;;7.87;61.42;99847.59;5117583;27;20777;-76
2023/01/17 05:49:05;;;;;;;45.05;27.05;;;;;;;7.93;61.04;99856.63;5117502;27;20415;-76
2023/01/17 05:51:31;;;;;;;45.00;27.03;;;;;;;7.88;61.30;99848.41;5116662;27;20490;-76
2023/01/17 05:53:56;;;;;;;41.97;26.53;;;;;;;7.97;61.25;99839.44;5116357;28;20383;-76
2023/01/17 05:56:22;;;;;;;45.03;27.77;;;;;;;8.01;60.90;99838.09;5116354;27;20393;-76
2023/01/17 05:58:47;;;;;;;45.28;28.75;;;;;;;8.04;60.93;99845.69;5111722;28;20386;-76
2023/01/17 06:01:13;;;;;;;48.50;29.40;;;;;;;8.00;60.78;99842.56;5115018;28;20395;-75
2023/01/17 06:03:38;;;;;;;47.07;27.40;;;;;;;8.06;60.65;99842.88;5116016;27;20379;-75
2023/01/17 06:06:04;;;;;;;43.63;26.63;;;;;;;8.09;60.91;99837.25;5115583;28;20840;-75
2023/01/17 06:08:29;;;;;;;43.23;25.83;;;;;;;8.11;60.83;99836.06;5115897;28;20847;-75
2023/01/17 06:10:57;;;;;;;45.90;26.63;;;;;;;8.14;60.51;99856.84;5115819;27;20375;-75
2023/01/17 06:13:23;;;;;;;48.30;26.60;;;;;;;8.01;60.58;99831.03;5115894;27;20386;-76
2023/01/17 06:15:48;;;;;;;42.75;25.05;;;;;;;7.82;61.43;99826.19;5115007;28;20387;-75
2023/01/17 06:18:16;;;;;;;39.60;25.47;;;;;;;7.95;61.11;99842.25;5114071;28;20452;-77
2023/01/17 06:20:42;;;;;;;53.08;32.97;;;;;;;7.94;60.82;99851.19;5115077;27;21160;-76
2023/01/17 06:23:11;;;;;;;48.87;30.90;;;;;;;7.89;60.76;99850.88;5109104;27;20424;-76
2023/01/17 06:25:44;;;;;;;67.32;44.45;;;;;;;7.78;61.03;99832.81;5106790;28;20418;-75
2023/01/17 06:28:12;;;;;;;76.70;58.03;;;;;;;7.75;61.26;99825.25;5116402;27;20422;-76
2023/01/17 06:30:37;;;;;;;56.10;35.63;;;;;;;7.82;61.39;99824.38;5115321;28;20462;-76
2023/01/17 06:33:03;;;;;;;49.13;30.23;;;;;;;7.89;61.00;99829.78;5114645;27;20793;-76
2023/01/17 06:35:29;;;;;;;51.47;31.48;;;;;;;7.96;61.21;99827.25;5105306;28;20372;-76
2023/01/17 06:37:57;;;;;;;50.47;31.83;;;;;;;8.06;61.16;99827.03;5114175;27;20767;-76
2023/01/17 06:40:26;;;;;;;51.87;32.80;;;;;;;8.11;60.85;99828.13;5113326;28;20375;-76
2023/01/17 06:42:52;;;;;;;57.58;34.90;;;;;;;8.14;60.82;99825.16;5113503;28;20422;-76
2023/01/17 06:45:18;;;;;;;58.15;32.05;;;;;;;8.13;60.44;99804.22;5113137;28;20464;-76
2023/01/17 06:47:44;;;;;;;51.97;32.43;;;;;;;8.15;60.75;99824.16;5113260;28;20725;-75
2023/01/17 06:50:13;;;;;;;53.30;32.05;;;;;;;8.19;60.67;99830.75;5114008;28;20380;-75
2023/01/17 06:52:42;;;;;;;54.33;31.77;;;;;;;8.22;60.70;99838.28;5112687;28;20477;-76
2023/01/17 06:55:08;;;;;;;50.80;30.45;;;;;;;8.22;60.83;99848.84;5094961;28;20454;-76
2023/01/17 06:57:34;;;;;;;49.63;29.17;;;;;;;8.20;60.65;99852.66;5107893;28;20469;-75
2023/01/17 06:59:59;;;;;;;48.10;27.53;;;;;;;8.15;61.24;99842.63;5110550;28;20471;-75
2023/01/17 07:02:25;;;;;;;49.55;32.08;;;;;;;8.11;61.04;99835.25;5109807;28;20376;-75
2023/01/17 07:04:51;;;;;;;51.03;30.58;;;;;;;8.10;60.65;99837.03;5110549;28;20415;-76
2023/01/17 07:07:16;;;;;;;49.33;33.20;;;;;;;8.03;60.75;99841.38;5109280;28;20536;-76
2023/01/17 07:09:42;;;;;;;61.47;36.90;;;;;;;8.10;61.00;99849.44;5112194;28;20379;-77
2023/01/17 07:12:08;;;;;;;59.17;36.88;;;;;;;8.22;60.79;99851.47;5101143;28;21105;-76
2023/01/17 07:14:34;;;;;;;61.60;38.78;;;;;;;8.24;60.74;99873.25;5112734;28;20378;-75
2023/01/17 07:16:59;;;;;;;58.60;36.47;;;;;;;8.29;60.99;99867.44;5113403;28;20384;-76
2023/01/17 07:19:25;;;;;;;59.53;36.87;;;;;;;8.33;60.48;99876.66;5113791;28;20820;-76
2023/01/17 07:21:52;;;;;;;62.67;39.88;;;;;;;8.39;60.73;99875.13;5112169;28;20375;-76
2023/01/17 07:24:18;;;;;;;63.08;37.95;;;;;;;8.36;60.52;99863.13;5088261;27;20484;-75
2023/01/17 07:26:47;;;;;;;66.47;40.70;;;;;;;8.37;60.92;99859.50;5103507;28;20377;-75
2023/01/17 07:29:14;;;;;;;67.85;40.92;;;;;;;8.40;60.72;99877.59;5094843;28;20405;-77
2023/01/17 07:31:39;;;;;;;75.43;43.37;;;;;;;8.38;60.81;99881.44;5111296;28;20421;-76
2023/01/17 07:34:05;;;;;;;74.03;43.77;;;;;;;8.40;61.11;99884.72;5113624;28;20376;-77
2023/01/17 07:36:31;;;;;;;66.32;39.80;;;;;;;8.44;60.67;99879.94;5113758;28;20379;-76
2023/01/17 07:38:56;;;;;;;74.50;43.60;;;;;;;8.44;60.64;99872.00;5113100;28;20376;-77
2023/01/17 07:41:22;;;;;;;69.30;40.33;;;;;;;8.50;60.54;99864.19;5113387;28;20758;-76
2023/01/17 07:43:47;;;;;;;65.35;40.22;;;;;;;8.54;60.45;99869.94;5113178;28;20368;-76
2023/01/17 07:46:14;;;;;;;70.60;43.83;;;;;;;8.42;60.76;99874.81;5113119;28;20382;-76
2023/01/17 07:48:40;;;;;;;72.43;44.40;;;;;;;8.48;60.54;99868.84;5113245;28;20423;-75
2023/01/17 07:51:06;;;;;;;69.22;43.17;;;;;;;8.53;60.38;99886.78;5111771;28;20372;-75
2023/01/17 07:53:32;;;;;;;84.30;53.78;;;;;;;8.47;60.53;99876.94;5113284;28;20389;-76
2023/01/17 07:56:06;;;;;;;93.95;56.33;;;;;;;8.40;60.69;99876.78;5112974;28;20368;-77
2023/01/17 07:58:33;;;;;;;58.15;35.70;;;;;;;8.29;60.39;99862.16;5112576;28;20372;-76
2023/01/17 08:01:07;;;;;;;69.35;41.17;;;;;;;8.42;60.74;99877.47;5112589;28;20387;-77
2023/01/17 08:03:38;;;;;;;65.85;37.00;;;;;;;8.47;60.65;99871.66;5112774;28;20458;-76
2023/01/17 08:06:04;;;;;;;56.35;36.28;;;;;;;8.50;60.32;99860.72;5112235;28;20403;-75
2023/01/17 08:08:30;;;;;;;59.05;35.78;;;;;;;8.35;60.49;99871.22;5112981;28;20379;-76
2023/01/17 08:10:55;;;;;;;96.10;71.93;;;;;;;8.21;60.45;99872.78;5112959;28;20689;-75
2023/01/17 08:13:21;;;;;;;62.60;39.07;;;;;;;8.24;61.08;99880.34;5113181;28;20847;-76
2023/01/17 08:15:50;;;;;;;63.38;38.25;;;;;;;8.28;61.19;99889.56;5112485;28;20484;-76
2023/01/17 08:18:17;;;;;;;61.83;35.93;;;;;;;8.41;60.79;99891.66;5113114;28;20383;-75
2023/01/17 08:20:43;;;;;;;55.80;34.13;;;;;;;8.22;61.01;99877.06;5113237;28;20379;-77
2023/01/17 08:23:09;;;;;;;53.20;33.33;;;;;;;8.08;61.34;99885.75;5112824;28;20856;-76
2023/01/17 08:25:34;;;;;;;54.63;32.00;;;;;;;8.14;61.24;99877.97;5113459;28;20406;-77
2023/01/17 08:28:00;;;;;;;62.30;36.80;;;;;;;8.23;61.28;99884.00;5111964;28;20886;-76
2023/01/17 08:30:26;;;;;;;58.97;34.05;;;;;;;8.29;60.83;99883.28;5112304;28;20423;-76
2023/01/17 08:32:51;;;;;;;48.67;28.80;;;;;;;8.22;61.08;99893.72;5113366;28;20378;-77
2023/01/17 08:35:18;;;;;;;54.22;31.67;;;;;;;8.24;61.45;99899.66;5113033;28;20701;-76
2023/01/17 08:37:44;;;;;;;50.60;30.13;;;;;;;8.26;61.41;99917.16;5113379;28;20386;-74
2023/01/17 08:40:10;;;;;;;47.08;28.10;;;;;;;8.29;61.50;99916.81;5112119;28;20371;-75
2023/01/17 08:42:39;;;;;;;48.90;28.17;;;;;;;8.24;61.45;99920.78;5113127;28;20374;-76
2023/01/17 08:45:05;;;;;;;50.17;28.38;;;;;;;8.22;61.79;99928.03;5113003;28;20504;-76
2023/01/17 08:47:32;;;;;;;39.43;24.77;;;;;;;8.15;61.99;99927.09;5112600;28;20465;-75
2023/01/17 08:49:58;;;;;;;40.55;23.90;;;;;;;8.11;62.18;99927.63;5111817;28;20371;-76
2023/01/17 08:52:25;;;;;;;45.08;27.45;;;;;;;8.17;62.27;99922.47;5112023;28;20368;-76
2023/01/17 08:54:52;;;;;;;58.77;34.97;;;;;;;8.18;61.99;99925.94;5112301;28;20475;-76
2023/01/17 08:57:19;;;;;;;42.28;25.15;;;;;;;8.19;62.38;99911.72;5111811;28;20379;-76
2023/01/17 08:59:44;;;;;;;44.22;28.20;;;;;;;8.23;62.29;99907.78;5112104;28;20903;-77
2023/01/17 09:02:14;;;;;;;37.80;23.07;;;;;;;8.30;62.24;99905.22;5110712;28;20483;-77
2023/01/17 09:04:43;;;;;;;45.22;27.73;;;;;;;8.45;61.99;99914.09;5111623;28;20403;-77
2023/01/17 09:07:08;;;;;;;40.67;27.85;;;;;;;8.53;61.95;99913.19;5111079;28;20403;-78
2023/01/17 09:09:34;;;;;;;59.10;33.03;;;;;;;8.70;61.68;99924.50;5110902;28;20784;-75
2023/01/17 09:11:59;;;;;;;99.47;44.90;;;;;;;8.71;61.20;99929.56;5111320;28;20395;-76
2023/01/17 09:14:24;;;;;;;43.33;25.60;;;;;;;8.67;61.52;99954.72;5110226;28;20436;-76
2023/01/17 09:16:50;;;;;;;44.80;24.95;;;;;;;8.76;61.21;99942.25;5112660;28;20720;-76
2023/01/17 09:19:15;;;;;;;36.63;23.30;;;;;;;8.85;61.25;99945.66;5112622;28;20367;-77
2023/01/17 09:21:41;;;;;;;55.23;36.77;;;;;;;8.89;60.75;99937.19;5111385;28;20387;-75
2023/01/17 09:24:07;;;;;;;46.65;27.08;;;;;;;8.71;61.14;99932.22;5110485;28;20941;-76
2023/01/17 09:26:32;;;;;;;40.20;25.03;;;;;;;8.55;60.91;99921.75;5094321;28;20468;-77
2023/01/17 09:28:58;;;;;;;38.27;23.27;;;;;;;8.60;61.00;99917.59;5111054;28;20494;-76
2023/01/17 09:31:25;;;;;;;42.40;24.02;;;;;;;8.42;61.25;99902.03;5111747;28;20386;-76
2023/01/17 09:33:53;;;;;;;49.17;27.13;;;;;;;8.63;61.22;99899.78;5108936;28;20506;-76
2023/01/17 09:36:19;;;;;;;44.23;28.10;;;;;;;8.77;61.10;99899.00;5111272;28;21114;-76
2023/01/17 09:38:45;;;;;;;47.63;27.17;;;;;;;8.90;60.41;99903.66;5111339;28;20757;-75
2023/01/17 09:41:27;;;;;;;49.30;29.27;;;;;;;8.94;60.36;99907.59;5111507;28;20380;-78
2023/01/17 09:44:00;;;;;;;41.40;24.83;;;;;;;8.79;60.27;99902.28;5111193;28;20387;-76
2023/01/17 09:46:30;;;;;;;34.83;21.70;;;;;;;8.79;60.08;99889.88;5111191;28;20368;-76
2023/01/17 09:49:18;;;;;;;36.08;21.70;;;;;;;8.94;60.29;99900.47;5110898;28;20375;-77
2023/01/17 09:51:44;;;;;;;42.28;23.52;;;;;;;8.85;59.86;99898.09;5110686;28;20376;-76
2023/01/17 09:54:20;;;;;;;50.00;31.38;;;;;;;8.84;60.12;99886.72;5111202;28;20748;-77
2023/01/17 09:56:57;;;;;;;33.35;20.73;;;;;;;8.78;59.60;99892.69;5110976;28;20844;-76
2023/01/17 09:59:48;;;;;;;58.83;29.48;;;;;;;8.58;59.78;99905.56;5096222;28;20461;-77
2023/01/17 10:02:36;;;;;;;68.45;38.83;;;;;;;8.42;60.51;99898.59;5068703;28;20385;-75
2023/01/17 10:05:36;;;;;;;71.45;42.03;;;;;;;8.64;60.12;99891.66;5104606;28;20810;-76
2023/01/17 10:08:26;;;;;;;44.38;28.25;;;;;;;8.76;60.16;99900.78;5111147;28;20492;-77
2023/01/17 10:11:03;;;;;;;36.58;23.27;;;;;;;8.88;59.40;99892.47;5099544;28;20379;-76
2023/01/17 10:13:55;;;;;;;31.83;20.30;;;;;;;8.73;59.58;99905.63;5112411;28;20383;-76
2023/01/17 10:16:39;;;;;;;38.30;23.70;;;;;;;8.70;60.36;99898.88;5113751;28;20426;-75
2023/01/17 10:19:23;;;;;;;34.00;22.45;;;;;;;8.67;59.75;99887.84;5113952;28;20386;-76
2023/01/17 10:22:09;;;;;;;50.28;31.60;;;;;;;8.75;60.38;99878.03;5114956;28;20377;-76
2023/01/17 10:24:56;;;;;;;45.22;29.45;;;;;;;8.96;59.78;99881.78;5115855;28;20490;-75
2023/01/17 10:27:32;;;;;;;35.45;22.60;;;;;;;8.95;59.83;99875.69;5114093;28;20426;-78
2023/01/17 10:30:02;;;;;;;36.75;23.27;;;;;;;8.92;59.29;99891.09;5114284;28;20490;-76
2023/01/17 10:32:31;;;;;;;32.10;21.55;;;;;;;8.96;59.48;99869.41;5114183;28;20832;-76
2023/01/17 10:35:01;;;;;;;36.28;22.92;;;;;;;9.18;59.56;99866.88;5113844;27;20376;-76
2023/01/17 10:37:42;;;;;;;34.33;21.65;;;;;;;9.31;59.31;99866.22;5114132;28;20379;-76
2023/01/17 10:40:49;;;;;;;30.02;19.83;;;;;;;9.18;59.08;99861.56;5114920;28;20376;-76
2023/01/17 10:43:19;;;;;;;31.23;20.43;;;;;;;9.23;59.08;99858.41;5115442;28;20364;-76
2023/01/17 10:45:52;;;;;;;27.55;18.38;;;;;;;9.13;59.01;99850.75;5114601;28;20399;-76
2023/01/17 10:48:43;;;;;;;29.50;19.63;;;;;;;9.14;59.36;99845.25;5114516;28;20379;-76
2023/01/17 10:51:20;;;;;;;30.42;20.48;;;;;;;9.45;58.72;99854.00;5114574;28;20408;-76
2023/01/17 10:53:51;;;;;;;31.73;21.20;;;;;;;9.37;58.88;99841.69;5112966;28;20380;-76
2023/01/17 10:56:21;;;;;;;28.73;18.77;;;;;;;9.19;58.69;99837.59;5114238;28;20368;-76
2023/01/17 10:58:49;;;;;;;26.58;17.65;;;;;;;9.11;58.87;99831.56;5115255;28;20829;-76
2023/01/17 11:01:19;;;;;;;27.73;18.08;;;;;;;9.13;58.79;99824.31;5112534;28;20388;-76
2023/01/17 11:03:50;;;;;;;30.15;18.88;;;;;;;9.25;59.05;99832.59;5113560;28;20379;-76
2023/01/17 11:06:25;;;;;;;29.75;18.83;;;;;;;9.09;59.12;99833.59;5114096;28;20387;-77
2023/01/17 11:09:05;;;;;;;24.92;17.10;;;;;;;8.88;59.35;99843.06;5113913;27;20375;-76
2023/01/17 11:11:33;;;;;;;27.27;18.27;;;;;;;8.94;59.15;99829.09;5113598;28;20367;-76
2023/01/17 11:14:02;;;;;;;29.17;18.77;;;;;;;9.28;59.27;99817.16;5113754;28;20417;-78
2023/01/17 11:16:30;;;;;;;25.13;16.43;;;;;;;9.39;58.11;99807.94;5114172;28;20448;-79
2023/01/17 11:19:20;;;;;;;26.58;16.60;;;;;;;9.48;57.88;99814.78;5113945;27;20787;-77
2023/01/17 11:22:03;;;;;;;29.03;18.47;;;;;;;9.24;58.19;99813.25;5113407;28;20393;-79
2023/01/17 11:24:55;;;;;;;25.27;16.98;;;;;;;9.13;58.34;99811.09;5113891;27;20403;-76
2023/01/17 11:27:27;;;;;;;28.25;18.85;;;;;;;9.10;58.90;99803.50;5107680;28;20510;-76
2023/01/17 11:30:15;;;;;;;31.27;20.65;;;;;;;9.21;58.94;99804.88;5112878;28;20511;-76
2023/01/17 11:33:03;;;;;;;30.95;18.77;;;;;;;9.21;58.70;99805.69;5113247;28;20403;-77
2023/01/17 11:35:35;;;;;;;27.33;18.15;;;;;;;9.28;58.79;99798.66;5111804;28;20401;-77
2023/01/17 11:38:00;;;;;;;25.70;16.50;;;;;;;9.34;58.34;99787.34;5113524;28;20406;-76
2023/01/17 11:40:35;;;;;;;25.07;17.07;;;;;;;9.44;57.99;99783.59;5113112;28;20400;-76
2023/01/17 11:43:17;;;;;;;28.70;19.88;;;;;;;9.33;58.58;99785.72;5095073;28;20403;-77
2023/01/17 11:45:44;;;;;;;30.27;20.35;;;;;;;9.39;58.71;99781.50;5113875;27;20391;-76
2023/01/17 11:48:11;;;;;;;34.47;22.92;;;;;;;9.57;58.36;99781.91;5112221;28;20372;-76
2023/01/17 11:50:55;;;;;;;32.30;20.88;;;;;;;9.43;58.75;99790.69;5112288;28;20375;-76
2023/01/17 11:53:26;;;;;;;26.67;18.85;;;;;;;9.21;58.94;99789.81;5111707;28;20379;-76
2023/01/17 11:56:09;;;;;;;26.33;18.02;;;;;;;9.12;58.99;99791.75;5112055;28;20378;-76
2023/01/17 11:58:41;;;;;;;26.53;18.13;;;;;;;9.20;59.06;99801.41;5112938;28;20425;-77
2023/01/17 12:01:06;;;;;;;27.63;19.80;;;;;;;9.41;59.28;99784.78;5112933;28;20375;-77
2023/01/17 12:04:14;;;;;;;35.67;23.70;;;;;;;9.47;59.01;99775.28;5112829;28;20719;-77
2023/01/17 12:06:54;;;;;;;29.45;20.20;;;;;;;9.64;58.61;99757.38;5085196;28;20460;-77
2023/01/17 12:09:29;;;;;;;31.10;18.50;;;;;;;9.58;58.19;99751.00;5110785;28;20382;-77
2023/01/17 12:15:26;;;;;;;28.95;18.95;;;;;;;9.74;57.94;99744.63;5112888;28;20387;-78
2023/01/17 12:18:25;;;;;;;26.07;18.43;;;;;;;9.55;58.46;99746.06;5096030;28;20415;-77
2023/01/17 12:20:56;;;;;;;31.73;20.83;;;;;;;9.45;59.18;99734.97;5110312;28;20486;-76
2023/01/17 12:23:30;;;;;;;29.63;19.08;;;;;;;9.61;58.45;99731.28;5111476;28;20458;-77
2023/01/17 12:27:00;;;;;;;24.58;17.73;;;;;;;9.43;58.57;99731.69;5111291;28;20483;-77
2023/01/17 12:29:41;;;;;;;24.77;17.60;;;;;;;9.52;59.01;99723.44;5060408;28;20484;-76
2023/01/17 12:32:09;;;;;;;33.95;19.52;;;;;;;9.67;58.59;99709.34;5053186;28;20383;-76
2023/01/17 12:34:54;;;;;;;29.23;18.30;;;;;;;9.74;58.55;99718.16;5096376;28;20834;-76
2023/01/17 12:37:29;;;;;;;36.00;19.83;;;;;;;9.92;58.36;99729.16;5114792;28;20542;-77
2023/01/17 12:40:04;;;;;;;29.27;18.65;;;;;;;10.02;58.20;99718.22;5112967;28;20372;-76
2023/01/17 12:42:37;;;;;;;30.83;19.50;;;;;;;10.03;57.81;99717.22;5112756;28;20367;-77
2023/01/17 12:45:12;;;;;;;24.88;17.58;;;;;;;10.12;57.73;99723.22;5115537;28;20476;-79
2023/01/17 12:47:48;;;;;;;29.23;17.75;;;;;;;10.21;57.77;99734.47;5106521;28;20398;-76
2023/01/17 12:50:40;;;;;;;28.25;18.10;;;;;;;10.14;57.66;99737.06;5111456;28;20424;-77
2023/01/17 12:53:36;;;;;;;27.63;18.65;;;;;;;10.03;58.00;99717.22;5102276;28;20380;-78
2023/01/17 12:56:39;;;;;;;27.55;18.63;;;;;;;10.09;57.82;99727.03;5111104;28;20407;-77
2023/01/17 12:59:18;;;;;;;32.50;20.23;;;;;;;10.27;57.77;99731.06;5091506;28;20460;-78
2023/01/17 13:01:56;;;;;;;27.05;17.48;;;;;;;10.29;57.74;99727.19;5095491;28;20441;-78
2023/01/17 13:04:48;;;;;;;29.63;19.13;;;;;;;10.43;57.33;99725.50;5110672;28;20434;-77
2023/01/17 13:07:19;;;;;;;30.48;18.40;;;;;;;10.60;57.29;99720.72;5091970;28;20924;-75